createdAt,value
2018-05-31T00:00:56.405Z,23.62
2018-05-31T00:03:24.800Z,23.43
2018-05-31T00:05:53.135Z,23.25
2018-05-31T00:08:21.507Z,23.31
2018-05-31T00:10:49.868Z,23.40
2018-05-31T00:13:18.227Z,23.48
2018-05-31T00:15:46.879Z,23.43
2018-05-31T00:18:15.232Z,23.38
2018-05-31T00:20:43.620Z,23.54
2018-05-31T00:23:12.752Z,23.63
2018-05-31T00:25:41.159Z,23.61
2018-05-31T00:28:10.265Z,23.58
2018-05-31T00:30:39.430Z,23.53
2018-05-31T00:33:07.753Z,23.62
2018-05-31T00:35:36.103Z,23.58
2018-05-31T00:38:04.568Z,23.71
2018-05-31T00:40:33.030Z,23.76
2018-05-31T00:43:01.512Z,23.67
2018-05-31T00:45:30.151Z,23.69
2018-05-31T00:47:58.491Z,23.77
2018-05-31T00:50:26.858Z,23.68
2018-05-31T00:52:55.476Z,23.74
2018-05-31T00:55:42.192Z,23.66
2018-05-31T00:58:10.717Z,23.64
2018-05-31T01:00:39.074Z,23.66
2018-05-31T01:03:07.479Z,23.69
2018-05-31T01:05:35.867Z,23.59
2018-05-31T01:08:04.384Z,23.60
2018-05-31T01:10:32.707Z,23.54
2018-05-31T01:13:01.059Z,23.72
2018-05-31T01:15:29.531Z,23.69
2018-05-31T01:17:57.853Z,23.54
2018-05-31T01:20:26.739Z,23.66
2018-05-31T01:22:55.158Z,23.68
2018-05-31T01:25:25.247Z,23.64
2018-05-31T01:27:53.616Z,23.52
2018-05-31T01:30:21.975Z,23.30
2018-05-31T01:32:50.971Z,23.17
2018-05-31T01:35:19.335Z,23.20
2018-05-31T01:37:48.737Z,23.30
2018-05-31T01:40:17.299Z,23.17
2018-05-31T01:42:45.947Z,23.00
2018-05-31T01:45:14.417Z,22.78
2018-05-31T01:47:43.087Z,22.54
2018-05-31T01:50:11.622Z,22.40
2018-05-31T01:52:40.000Z,22.19
2018-05-31T01:55:08.332Z,22.11
2018-05-31T01:57:37.007Z,22.09
2018-05-31T02:00:05.732Z,21.72
2018-05-31T02:02:34.102Z,21.74
2018-05-31T02:05:02.754Z,21.79
2018-05-31T02:07:31.973Z,21.85
2018-05-31T02:10:00.339Z,21.92
2018-05-31T02:12:29.090Z,21.91
2018-05-31T02:14:57.428Z,21.70
2018-05-31T02:17:25.896Z,21.75
2018-05-31T02:19:54.542Z,21.73
2018-05-31T02:22:23.080Z,21.45
2018-05-31T02:24:51.444Z,21.27
2018-05-31T02:27:20.209Z,21.21
2018-05-31T02:29:48.692Z,21.11
2018-05-31T02:32:17.811Z,21.12
2018-05-31T02:34:46.323Z,21.32
2018-05-31T02:37:14.657Z,21.49
2018-05-31T02:39:44.044Z,21.40
2018-05-31T02:42:12.560Z,21.46
2018-05-31T02:44:40.994Z,21.52
2018-05-31T02:47:09.719Z,21.52
2018-05-31T02:49:38.587Z,21.40
2018-05-31T02:52:07.071Z,21.40
2018-05-31T02:54:35.542Z,21.35
2018-05-31T02:57:04.696Z,21.46
2018-05-31T02:59:33.152Z,21.49
2018-05-31T03:02:01.471Z,21.43
2018-05-31T03:04:29.830Z,21.60
2018-05-31T03:06:58.213Z,21.67
2018-05-31T03:09:26.667Z,21.82
2018-05-31T03:11:55.549Z,21.80
2018-05-31T03:14:23.958Z,21.88
2018-05-31T03:16:52.302Z,21.91
2018-05-31T03:19:21.446Z,22.07
2018-05-31T03:21:49.792Z,22.04
2018-05-31T03:24:18.191Z,22.00
2018-05-31T03:26:46.608Z,22.04
2018-05-31T03:29:14.953Z,22.04
2018-05-31T03:31:43.432Z,22.01
2018-05-31T03:34:12.491Z,22.00
2018-05-31T03:36:40.816Z,22.04
2018-05-31T03:39:09.226Z,22.23
2018-05-31T03:41:37.779Z,22.17
2018-05-31T03:44:06.116Z,22.34
2018-05-31T03:46:35.498Z,22.34
2018-05-31T03:49:04.049Z,22.47
2018-05-31T03:51:32.394Z,22.58
2018-05-31T03:54:00.707Z,22.60
2018-05-31T03:56:29.636Z,22.52
2018-05-31T03:58:57.964Z,22.59
2018-05-31T04:01:26.320Z,22.66
2018-05-31T04:03:54.768Z,22.72
2018-05-31T04:06:23.077Z,22.64
2018-05-31T04:08:51.419Z,22.77
2018-05-31T04:11:19.755Z,22.87
2018-05-31T04:13:48.257Z,22.88
2018-05-31T04:16:16.900Z,22.94
2018-05-31T04:18:46.405Z,22.73
2018-05-31T04:21:14.746Z,23.05
2018-05-31T04:23:43.087Z,23.18
2018-05-31T04:26:11.462Z,23.29
2018-05-31T04:28:39.817Z,23.37
2018-05-31T04:31:08.918Z,23.34
2018-05-31T04:38:04.362Z,23.49
2018-05-31T04:40:33.827Z,23.43
2018-05-31T04:43:02.310Z,23.57
2018-05-31T04:45:30.652Z,23.59
2018-05-31T04:47:59.815Z,23.63
2018-05-31T04:50:29.223Z,23.64
2018-05-31T04:52:57.593Z,23.82
2018-05-31T04:55:26.836Z,23.90
2018-05-31T04:57:55.161Z,24.05
2018-05-31T05:00:23.507Z,24.22
2018-05-31T05:02:51.897Z,24.27
2018-05-31T05:05:20.223Z,24.29
2018-05-31T05:07:48.580Z,24.33
2018-05-31T05:10:16.959Z,24.58
2018-05-31T05:12:46.156Z,24.57
2018-05-31T05:15:14.463Z,24.60
2018-05-31T05:17:43.336Z,24.81
2018-05-31T05:20:11.665Z,24.87
2018-05-31T05:22:40.018Z,24.76
2018-05-31T05:25:08.372Z,24.71
2018-05-31T05:27:36.697Z,24.88
2018-05-31T05:30:05.024Z,25.09
2018-05-31T05:32:34.179Z,25.29
2018-05-31T05:35:02.474Z,25.25
2018-05-31T05:37:30.867Z,25.46
2018-05-31T05:40:00.169Z,25.62
2018-05-31T05:42:29.347Z,25.65
2018-05-31T05:44:57.756Z,25.62
2018-05-31T05:47:27.052Z,25.69
2018-05-31T05:49:56.279Z,25.87
2018-05-31T05:52:24.715Z,25.60
2018-05-31T05:54:53.207Z,25.87
2018-05-31T05:57:21.631Z,25.97
2018-05-31T05:59:50.076Z,26.08
2018-05-31T06:02:18.959Z,26.17
2018-05-31T06:04:48.170Z,26.11
2018-05-31T06:07:16.573Z,26.23
2018-05-31T06:09:45.020Z,26.06
2018-05-31T06:12:13.413Z,25.71
2018-05-31T06:14:41.780Z,25.66
2018-05-31T06:17:10.241Z,25.91
2018-05-31T06:19:38.743Z,25.87
2018-05-31T06:22:07.171Z,26.17
2018-05-31T06:24:35.895Z,26.28
2018-05-31T06:27:04.301Z,26.39
2018-05-31T06:29:32.789Z,26.16
2018-05-31T06:32:01.426Z,26.59
2018-05-31T06:34:29.948Z,26.64
2018-05-31T06:36:58.432Z,26.75
2018-05-31T06:39:26.879Z,26.84
2018-05-31T06:45:44.467Z,26.92
2018-05-31T06:48:13.656Z,27.22
2018-05-31T06:50:42.179Z,26.86
2018-05-31T06:53:10.594Z,26.93
2018-05-31T06:55:39.065Z,26.91
2018-05-31T06:58:07.479Z,27.10
2018-05-31T07:00:35.963Z,27.71
2018-05-31T07:03:05.085Z,28.10
2018-05-31T07:05:34.260Z,28.15
2018-05-31T07:08:02.835Z,28.40
2018-05-31T07:10:31.988Z,28.57
2018-05-31T07:13:00.561Z,28.67
2018-05-31T07:15:29.105Z,28.76
2018-05-31T07:17:57.528Z,29.18
2018-05-31T07:20:25.906Z,28.98
2018-05-31T07:22:54.345Z,29.15
2018-05-31T07:25:23.632Z,29.23
2018-05-31T07:27:52.017Z,29.41
2018-05-31T07:30:20.924Z,29.29
2018-05-31T07:32:49.263Z,29.35
2018-05-31T07:35:17.594Z,29.52
2018-05-31T07:37:46.728Z,29.43
2018-05-31T07:40:15.057Z,29.51
2018-05-31T07:42:43.412Z,29.84
2018-05-31T07:45:12.534Z,29.72
2018-05-31T07:47:41.658Z,29.67
2018-05-31T07:50:09.999Z,29.77
2018-05-31T07:52:38.758Z,29.60
2018-05-31T07:55:07.108Z,29.78
2018-05-31T07:57:35.437Z,30.07
2018-05-31T08:00:03.784Z,29.94
2018-05-31T08:02:32.098Z,30.01
2018-05-31T08:05:00.413Z,30.03
2018-05-31T08:07:29.538Z,30.45
2018-05-31T08:09:57.874Z,30.44
2018-05-31T08:12:26.250Z,30.56
2018-05-31T08:14:55.858Z,31.07
2018-05-31T08:17:24.191Z,30.92
2018-05-31T08:19:52.530Z,31.11
2018-05-31T08:22:21.652Z,31.05
2018-05-31T08:24:49.983Z,30.84
2018-05-31T08:27:18.315Z,30.77
2018-05-31T08:29:46.685Z,30.50
2018-05-31T08:32:15.021Z,30.24
2018-05-31T08:34:43.347Z,30.31
2018-05-31T08:37:11.983Z,30.65
2018-05-31T08:39:40.328Z,30.90
2018-05-31T08:42:08.669Z,30.91
2018-05-31T08:44:37.050Z,30.86
2018-05-31T08:50:44.168Z,30.56
2018-05-31T08:53:12.571Z,30.84
2018-05-31T08:55:41.695Z,31.49
2018-05-31T08:58:10.586Z,31.91
2018-05-31T09:00:38.960Z,32.22
2018-05-31T09:03:07.318Z,32.37
2018-05-31T09:05:35.718Z,32.30
2018-05-31T09:08:04.044Z,31.73
2018-05-31T09:10:32.379Z,31.75
2018-05-31T09:13:00.725Z,32.05
2018-05-31T09:15:29.037Z,31.58
2018-05-31T09:17:57.345Z,31.56
2018-05-31T09:20:26.218Z,31.45
2018-05-31T09:22:54.513Z,31.94
2018-05-31T09:25:22.874Z,32.07
2018-05-31T09:27:51.977Z,31.34
2018-05-31T09:30:21.068Z,31.74
2018-05-31T09:32:49.413Z,32.19
2018-05-31T09:35:17.795Z,31.88
2018-05-31T09:37:46.132Z,31.96
2018-05-31T09:40:14.533Z,32.50
2018-05-31T09:42:43.910Z,32.24
2018-05-31T09:45:12.440Z,32.52
2018-05-31T09:47:40.864Z,33.08
2018-05-31T09:50:09.298Z,32.80
2018-05-31T09:52:37.670Z,32.99
2018-05-31T09:55:06.022Z,33.36
2018-05-31T09:57:34.363Z,32.79
2018-05-31T10:00:02.701Z,32.63
2018-05-31T10:02:31.016Z,32.94
2018-05-31T10:04:59.616Z,33.67
2018-05-31T10:07:28.720Z,33.79
2018-05-31T10:09:57.801Z,33.59
2018-05-31T10:12:26.923Z,33.38
2018-05-31T10:14:55.261Z,33.68
2018-05-31T10:17:23.602Z,33.79
2018-05-31T10:19:51.985Z,34.19
2018-05-31T10:22:20.325Z,34.44
2018-05-31T10:24:48.714Z,33.95
2018-05-31T10:27:17.386Z,33.90
2018-05-31T10:29:46.499Z,33.40
2018-05-31T10:32:14.824Z,32.84
2018-05-31T10:34:43.258Z,33.68
2018-05-31T10:37:11.619Z,33.98
2018-05-31T10:39:40.724Z,34.66
2018-05-31T10:42:09.876Z,34.83
2018-05-31T10:44:38.194Z,34.78
2018-05-31T10:47:07.282Z,35.05
2018-05-31T10:49:36.691Z,35.18
2018-05-31T10:52:05.025Z,35.30
2018-05-31T10:54:33.381Z,34.70
2018-05-31T10:57:01.778Z,34.88
2018-05-31T10:59:30.136Z,33.75
2018-05-31T11:01:58.470Z,33.97
2018-05-31T11:04:26.817Z,34.05
2018-05-31T11:06:55.162Z,34.59
2018-05-31T11:09:23.501Z,35.69
2018-05-31T11:11:52.122Z,34.79
2018-05-31T11:14:20.470Z,34.10
2018-05-31T11:16:48.817Z,34.46
2018-05-31T11:19:17.151Z,34.61
2018-05-31T11:21:46.360Z,34.78
2018-05-31T11:24:14.704Z,34.65
2018-05-31T11:26:43.075Z,34.89
2018-05-31T11:29:11.507Z,34.94
2018-05-31T11:31:40.555Z,35.16
2018-05-31T11:34:09.088Z,35.03
2018-05-31T11:36:37.419Z,35.23
2018-05-31T11:39:05.741Z,35.93
2018-05-31T11:41:34.122Z,35.45
2018-05-31T11:44:02.481Z,34.90
2018-05-31T11:46:30.865Z,34.79
2018-05-31T11:48:59.256Z,35.10
2018-05-31T11:51:27.609Z,35.64
2018-05-31T11:53:56.725Z,35.41
2018-05-31T11:56:25.170Z,35.89
2018-05-31T11:58:53.467Z,35.07
2018-05-31T12:01:22.599Z,35.08
2018-05-31T12:03:51.007Z,34.89
2018-05-31T12:06:19.314Z,35.34
2018-05-31T12:08:48.446Z,35.13
2018-05-31T12:11:16.820Z,35.69
2018-05-31T12:13:45.420Z,35.89
2018-05-31T12:16:13.959Z,34.81
2018-05-31T12:18:42.786Z,34.31
2018-05-31T12:21:11.106Z,34.20
2018-05-31T12:23:39.440Z,34.55
2018-05-31T12:26:07.787Z,34.18
2018-05-31T12:28:36.874Z,34.98
2018-05-31T12:31:05.966Z,34.94
2018-05-31T12:33:34.367Z,34.61
2018-05-31T12:36:02.731Z,34.27
2018-05-31T12:38:31.847Z,34.30
2018-05-31T12:41:00.398Z,34.83
2018-05-31T12:43:28.754Z,34.98
2018-05-31T12:45:57.087Z,35.19
2018-05-31T12:48:25.440Z,35.47
2018-05-31T12:50:53.750Z,34.80
2018-05-31T12:53:22.151Z,34.64
2018-05-31T12:55:50.545Z,34.82
2018-05-31T12:58:18.860Z,34.12
2018-05-31T13:00:47.975Z,34.55
2018-05-31T13:03:16.720Z,34.66
2018-05-31T13:05:45.034Z,35.24
2018-05-31T13:08:14.143Z,35.08
2018-05-31T13:10:42.514Z,34.63
2018-05-31T13:13:11.610Z,34.25
2018-05-31T13:15:40.686Z,34.54
2018-05-31T13:18:09.803Z,34.36
2018-05-31T13:20:38.157Z,34.58
2018-05-31T13:23:06.540Z,34.97
2018-05-31T13:25:36.015Z,34.29
2018-05-31T13:28:04.343Z,34.59
2018-05-31T13:30:34.386Z,34.45
2018-05-31T13:33:02.816Z,35.26
2018-05-31T13:35:31.132Z,35.60
2018-05-31T13:37:59.455Z,35.33
2018-05-31T13:40:27.861Z,34.76
2018-05-31T13:42:56.263Z,34.67
2018-05-31T13:45:25.896Z,35.10
2018-05-31T13:47:54.432Z,35.47
2018-05-31T13:50:23.540Z,34.98
2018-05-31T13:52:52.623Z,34.80
2018-05-31T13:55:21.753Z,34.57
2018-05-31T13:57:50.098Z,35.00
2018-05-31T14:00:18.453Z,34.70
2018-05-31T14:02:46.811Z,35.02
2018-05-31T14:05:15.147Z,34.78
2018-05-31T14:07:44.224Z,34.85
2018-05-31T14:10:12.813Z,35.02
2018-05-31T14:12:41.190Z,35.10
2018-05-31T14:15:10.320Z,34.64
2018-05-31T14:17:38.662Z,34.90
2018-05-31T14:20:07.809Z,35.50
2018-05-31T14:22:36.153Z,35.06
2018-05-31T14:25:04.500Z,35.15
2018-05-31T14:27:32.852Z,35.19
2018-05-31T14:30:02.274Z,35.53
2018-05-31T14:32:30.724Z,35.47
2018-05-31T14:34:59.101Z,35.36
2018-05-31T14:37:27.450Z,35.35
2018-05-31T14:39:55.819Z,35.88
2018-05-31T14:42:24.898Z,35.75
2018-05-31T14:44:53.279Z,35.52
2018-05-31T14:47:21.676Z,35.82
2018-05-31T14:49:50.864Z,36.11
2018-05-31T14:52:19.265Z,35.92
2018-05-31T14:54:48.925Z,35.52
2018-05-31T14:57:17.445Z,35.14
2018-05-31T14:59:45.925Z,35.32
2018-05-31T15:02:14.284Z,35.47
2018-05-31T15:04:42.674Z,35.64
2018-05-31T15:07:11.165Z,35.63
2018-05-31T15:09:39.547Z,35.97
2018-05-31T15:12:07.919Z,35.86
2018-05-31T15:14:36.314Z,35.85
2018-05-31T15:17:05.902Z,36.15
2018-05-31T15:19:34.299Z,35.60
2018-05-31T15:22:03.422Z,35.42
2018-05-31T15:24:31.907Z,35.46
2018-05-31T15:27:00.342Z,36.10
2018-05-31T15:29:28.709Z,35.77
2018-05-31T15:31:57.244Z,35.26
2018-05-31T15:34:25.681Z,35.49
2018-05-31T15:36:54.194Z,35.70
2018-05-31T15:39:24.209Z,35.50
2018-05-31T15:41:53.487Z,35.38
2018-05-31T15:44:21.866Z,35.56
2018-05-31T15:46:50.352Z,35.35
2018-05-31T15:49:18.727Z,35.71
2018-05-31T15:51:47.307Z,35.60
2018-05-31T15:54:15.804Z,35.50
2018-05-31T15:56:45.090Z,35.82
2018-05-31T15:59:13.481Z,36.10
2018-05-31T16:01:42.377Z,35.99
2018-05-31T16:04:16.666Z,36.21
2018-05-31T16:06:45.169Z,36.02
2018-05-31T16:09:13.753Z,35.83
2018-05-31T16:11:42.145Z,35.71
2018-05-31T16:14:11.340Z,35.23
2018-05-31T16:16:39.807Z,35.29
2018-05-31T16:19:08.232Z,34.96
2018-05-31T16:21:36.858Z,34.88
2018-05-31T16:24:05.255Z,35.26
2018-05-31T16:26:33.570Z,34.86
2018-05-31T16:29:01.939Z,34.77
2018-05-31T16:31:31.005Z,34.83
2018-05-31T16:33:59.343Z,34.61
2018-05-31T16:36:27.708Z,34.73
2018-05-31T16:38:56.075Z,34.53
2018-05-31T16:41:24.387Z,34.55
2018-05-31T16:43:53.143Z,34.29
2018-05-31T16:46:21.472Z,34.19
2018-05-31T16:48:49.819Z,34.35
2018-05-31T16:51:18.176Z,34.27
2018-05-31T16:53:46.506Z,34.16
2018-05-31T16:56:14.815Z,34.34
2018-05-31T16:58:43.923Z,34.27
2018-05-31T17:01:13.024Z,34.00
2018-05-31T17:03:41.351Z,33.56
2018-05-31T17:06:10.267Z,33.63
2018-05-31T17:08:38.585Z,33.84
2018-05-31T17:11:06.917Z,33.84
2018-05-31T17:13:35.281Z,33.85
2018-05-31T17:16:03.624Z,33.91
2018-05-31T17:18:31.961Z,33.76
2018-05-31T17:21:00.352Z,33.81
2018-05-31T17:23:28.705Z,33.68
2018-05-31T17:25:57.040Z,33.63
2018-05-31T17:28:25.627Z,33.85
2018-05-31T17:30:53.936Z,33.85
2018-05-31T17:33:22.232Z,33.77
2018-05-31T17:35:50.584Z,33.76
2018-05-31T17:38:18.923Z,33.65
2018-05-31T17:40:47.241Z,33.68
2018-05-31T17:43:15.622Z,33.51
2018-05-31T17:45:43.953Z,33.09
2018-05-31T17:48:12.303Z,32.93
2018-05-31T17:50:41.107Z,32.69
2018-05-31T17:53:09.591Z,32.69
2018-05-31T17:55:37.914Z,32.46
2018-05-31T17:58:06.291Z,32.48
2018-05-31T18:00:34.675Z,32.16
2018-05-31T18:03:03.020Z,32.23
2018-05-31T18:05:31.396Z,32.33
2018-05-31T18:07:59.714Z,32.44
2018-05-31T18:10:29.028Z,32.30
2018-05-31T18:12:57.711Z,32.28
2018-05-31T18:15:26.042Z,32.26
2018-05-31T18:17:55.141Z,32.00
2018-05-31T18:20:23.522Z,32.12
2018-05-31T18:22:51.849Z,32.18
2018-05-31T18:25:20.153Z,31.99
2018-05-31T18:27:49.295Z,31.86
2018-05-31T18:30:17.642Z,31.75
2018-05-31T18:32:46.840Z,31.63
2018-05-31T18:35:16.024Z,31.70
2018-05-31T18:37:44.393Z,31.81
2018-05-31T18:40:12.707Z,31.41
2018-05-31T18:42:41.210Z,31.37
2018-05-31T18:45:09.531Z,31.40
2018-05-31T18:47:37.912Z,31.27
2018-05-31T18:50:06.291Z,31.37
2018-05-31T18:52:34.639Z,30.99
2018-05-31T18:55:02.953Z,30.99
2018-05-31T18:57:31.803Z,30.96
2018-05-31T19:00:00.170Z,30.87
2018-05-31T19:02:28.521Z,30.84
2018-05-31T19:04:57.642Z,30.96
2018-05-31T19:07:26.770Z,30.75
2018-05-31T19:09:55.096Z,30.43
2018-05-31T19:12:28.872Z,30.46
2018-05-31T19:14:57.219Z,30.57
2018-05-31T19:17:25.545Z,30.42
2018-05-31T19:19:55.543Z,30.22
2018-05-31T19:22:23.887Z,30.05
2018-05-31T19:24:57.650Z,30.04
2018-05-31T19:27:26.741Z,29.98
2018-05-31T19:30:00.512Z,29.84
2018-05-31T19:32:28.912Z,30.13
2018-05-31T19:34:57.170Z,29.82
2018-05-31T19:37:25.696Z,30.02
2018-05-31T19:39:54.073Z,30.11
2018-05-31T19:42:28.017Z,30.00
2018-05-31T19:44:56.321Z,30.05
2018-05-31T19:47:24.696Z,29.63
2018-05-31T19:49:53.046Z,29.88
2018-05-31T19:52:26.822Z,30.04
2018-05-31T19:54:55.780Z,29.87
2018-05-31T19:57:24.105Z,29.83
2018-05-31T20:03:10.463Z,29.42
2018-05-31T20:05:38.891Z,29.58
2018-05-31T20:08:07.328Z,29.45
2018-05-31T20:10:35.728Z,29.32
2018-05-31T20:13:04.241Z,29.32
2018-05-31T20:15:33.477Z,29.24
2018-05-31T20:18:01.901Z,29.07
2018-05-31T20:20:30.368Z,28.97
2018-05-31T20:22:58.771Z,29.14
2018-05-31T20:25:27.134Z,29.07
2018-05-31T20:27:55.615Z,28.94
2018-05-31T20:30:24.104Z,28.83
2018-05-31T20:32:52.781Z,28.82
2018-05-31T20:35:21.885Z,28.74
2018-05-31T20:37:50.346Z,28.91
2018-05-31T20:40:18.832Z,28.69
2018-05-31T20:42:47.293Z,28.40
2018-05-31T20:45:15.713Z,28.60
2018-05-31T20:47:44.083Z,28.83
2018-05-31T20:50:12.544Z,28.45
2018-05-31T20:52:40.954Z,28.63
2018-05-31T20:55:09.405Z,28.50
2018-05-31T20:57:38.176Z,28.53
2018-05-31T21:00:06.495Z,28.38
2018-05-31T21:02:34.872Z,28.07
2018-05-31T21:05:03.331Z,28.05
2018-05-31T21:07:31.689Z,28.01
2018-05-31T21:10:00.065Z,28.11
2018-05-31T21:12:28.440Z,28.16
2018-05-31T21:14:56.857Z,28.27
2018-05-31T21:17:25.170Z,28.43
2018-05-31T21:19:53.887Z,28.41
2018-05-31T21:22:22.492Z,28.47
2018-05-31T21:24:51.494Z,28.29
2018-05-31T21:27:20.174Z,28.37
2018-05-31T21:29:48.531Z,28.22
2018-05-31T21:32:16.907Z,28.21
2018-05-31T21:34:45.952Z,28.09
2018-05-31T21:37:14.296Z,27.95
2018-05-31T21:39:42.646Z,28.24
2018-05-31T21:42:11.237Z,27.98
2018-05-31T21:44:39.554Z,28.00
2018-05-31T21:47:07.906Z,27.77
2018-05-31T21:49:36.269Z,27.87
2018-05-31T21:52:04.621Z,28.03
2018-05-31T21:54:33.729Z,27.86
2018-05-31T21:57:02.863Z,27.74
2018-05-31T21:59:31.198Z,27.84
2018-05-31T22:01:59.534Z,27.63
2018-05-31T22:04:27.967Z,27.54
2018-05-31T22:06:56.300Z,27.66
2018-05-31T22:09:24.668Z,27.50
2018-05-31T22:11:53.598Z,27.49
2018-05-31T22:14:21.914Z,27.43
2018-05-31T22:16:50.270Z,27.30
2018-05-31T22:19:19.445Z,27.21
2018-05-31T22:21:47.728Z,27.31
2018-05-31T22:24:16.045Z,27.21
2018-05-31T22:26:44.887Z,27.17
2018-05-31T22:29:13.228Z,27.09
2018-05-31T22:31:41.553Z,27.06
2018-05-31T22:34:09.906Z,27.01
2018-05-31T22:36:38.255Z,26.67
2018-05-31T22:39:06.587Z,26.87
2018-05-31T22:41:34.958Z,26.92
2018-05-31T22:44:03.271Z,26.79
2018-05-31T22:46:31.591Z,26.64
2018-05-31T22:49:00.100Z,26.44
2018-05-31T22:51:28.424Z,26.55
2018-05-31T22:53:56.731Z,26.54
2018-05-31T22:56:25.090Z,26.66
2018-05-31T22:58:54.328Z,26.67
2018-05-31T23:01:22.637Z,26.42
2018-05-31T23:03:51.769Z,26.55
2018-05-31T23:06:20.117Z,26.44
2018-05-31T23:08:48.426Z,26.43
2018-05-31T23:11:17.136Z,26.36
2018-05-31T23:13:45.431Z,26.34
2018-05-31T23:16:13.730Z,26.15
2018-05-31T23:18:42.083Z,26.23
2018-05-31T23:21:10.423Z,26.22
2018-05-31T23:23:38.773Z,26.24
2018-05-31T23:26:07.101Z,26.34
2018-05-31T23:28:35.420Z,26.24
2018-05-31T23:31:04.510Z,26.29
2018-05-31T23:33:33.773Z,26.33
2018-05-31T23:36:02.080Z,26.32
2018-05-31T23:38:30.379Z,26.43
2018-05-31T23:40:59.522Z,26.35
2018-05-31T23:43:27.829Z,26.17
2018-05-31T23:45:56.181Z,26.16
2018-05-31T23:48:25.308Z,26.20
2018-05-31T23:50:54.419Z,26.19
2018-05-31T23:53:23.498Z,25.84
2018-05-31T23:55:51.975Z,25.84
2018-05-31T23:58:20.305Z,25.82
